Time;durP1;ratioP1;P1;durP2;ratioP2;P2;SDS_P1;SDS_P2;PMS_P1;PMS_P2;Temp;Humidity;BMP_temperature;BMP_pressure;BME280_temperature;BME280_humidity;BME280_pressure;Samples;Min_cycle;Max_cycle;Signal;HPM_P1;HPM_P2
2021/09/01 00:00:01;;;;;;;10.10;9.10;;;;;;;17.13;100.00;100500.66;1619243;85;21069;-88
2021/09/01 00:02:31;;;;;;;9.90;8.80;;;;;;;17.14;100.00;100497.05;1618412;85;21002;-87
2021/09/01 00:04:58;;;;;;;19.90;9.50;;;;;;;17.14;100.00;100499.67;1617923;86;21555;-84
2021/09/01 00:07:25;;;;;;;11.20;8.95;;;;;;;17.16;100.00;100491.61;1645840;85;21040;-88
2021/09/01 00:09:52;;;;;;;12.68;9.43;;;;;;;17.19;100.00;100489.95;1618271;85;21869;-85
2021/09/01 00:12:19;;;;;;;22.80;9.68;;;;;;;17.21;100.00;100487.98;1617907;85;21152;-88
2021/09/01 00:14:48;;;;;;;12.82;9.65;;;;;;;17.18;100.00;100485.70;1617919;87;21096;-82
2021/09/01 00:17:17;;;;;;;12.10;8.85;;;;;;;17.10;100.00;100480.42;1618126;87;21108;-84
2021/09/01 00:19:45;;;;;;;11.38;9.53;;;;;;;17.00;100.00;100476.12;1618058;86;21658;-86
2021/09/01 00:22:12;;;;;;;9.98;8.90;;;;;;;16.91;100.00;100478.37;1645688;85;21856;-85
2021/09/01 00:24:39;;;;;;;9.88;8.88;;;;;;;16.85;100.00;100479.02;1618014;85;21588;-89
2021/09/01 00:27:07;;;;;;;10.20;9.20;;;;;;;16.80;100.00;100479.97;1617300;86;21053;-87
2021/09/01 00:29:37;;;;;;;10.23;9.25;;;;;;;16.72;100.00;100479.46;1618103;86;21108;-87
2021/09/01 00:32:05;;;;;;;11.95;9.83;;;;;;;16.63;100.00;100484.35;1626677;87;21059;-89
2021/09/01 00:34:32;;;;;;;12.68;9.83;;;;;;;16.53;100.00;100484.48;1626868;85;21510;-87
2021/09/01 00:37:00;;;;;;;9.95;8.95;;;;;;;16.43;100.00;100483.77;1650481;85;21148;-86
2021/09/01 00:39:27;;;;;;;11.80;9.53;;;;;;;16.37;100.00;100481.27;1625705;85;21015;-88
2021/09/01 00:41:54;;;;;;;10.45;9.45;;;;;;;16.32;100.00;100481.74;1625503;87;21551;-83
2021/09/01 00:44:27;;;;;;;11.57;9.68;;;;;;;16.26;100.00;100478.94;1650490;85;21049;-86
2021/09/01 00:46:57;;;;;;;14.80;10.65;;;;;;;16.19;100.00;100478.72;1650583;85;21305;-84
2021/09/01 00:49:28;;;;;;;12.95;10.18;;;;;;;16.11;100.00;100477.36;1615390;86;21007;-84
2021/09/01 00:51:57;;;;;;;13.85;11.48;;;;;;;16.01;100.00;100474.34;1634245;87;21623;-85
2021/09/01 00:54:27;;;;;;;11.63;10.43;;;;;;;15.87;100.00;100467.03;1615307;86;21034;-88
2021/09/01 00:57:02;;;;;;;16.55;11.10;;;;;;;15.74;100.00;100469.52;1634540;87;21137;-85
2021/09/01 00:59:33;;;;;;;14.65;11.20;;;;;;;15.62;100.00;100467.63;1634402;86;21809;-85
2021/09/01 01:02:02;;;;;;;12.15;10.80;;;;;;;15.51;100.00;100475.75;1634231;87;21594;-89
2021/09/01 01:04:34;;;;;;;13.38;10.82;;;;;;;15.44;100.00;100476.02;1633936;86;21022;-84
2021/09/01 01:07:10;;;;;;;13.40;10.80;;;;;;;15.37;100.00;100474.48;1634484;87;21049;-86
2021/09/01 01:09:40;;;;;;;13.03;11.38;;;;;;;15.27;100.00;100481.13;1615771;87;20974;-90
2021/09/01 01:12:11;;;;;;;13.62;11.22;;;;;;;15.20;100.00;100481.84;1606478;87;21142;-87
2021/09/01 01:14:43;;;;;;;13.05;11.20;;;;;;;15.10;100.00;100477.49;1615339;87;20964;-87
2021/09/01 01:17:11;;;;;;;;;;;;;;;15.05;100.00;100478.93;1636761;87;21834;-87
2021/09/01 01:19:41;;;;;;;15.25;11.22;;;;;;;14.97;100.00;100477.03;1634003;87;20154;-87
2021/09/01 01:22:11;;;;;;;13.13;11.43;;;;;;;14.92;100.00;100474.04;1634298;87;21085;-89
2021/09/01 01:25:06;;;;;;;12.58;10.93;;;;;;;14.88;100.00;100475.29;1615501;87;21102;-87
2021/09/01 01:27:42;;;;;;;15.20;11.35;;;;;;;14.89;100.00;100476.48;1633979;86;21117;-86
2021/09/01 01:30:14;;;;;;;11.57;10.48;;;;;;;14.96;100.00;100481.94;1615507;87;21046;-88
2021/09/01 01:32:44;;;;;;;12.30;11.00;;;;;;;15.05;100.00;100477.63;1634204;87;21065;-88
2021/09/01 01:35:13;;;;;;;12.43;11.27;;;;;;;15.08;100.00;100478.15;1615494;87;21600;-86
2021/09/01 01:37:40;;;;;;;13.13;11.20;;;;;;;15.05;100.00;100481.05;1612238;86;21156;-88
2021/09/01 01:40:08;;;;;;;17.23;11.90;;;;;;;14.99;100.00;100479.84;1606398;87;21085;-86
2021/09/01 01:42:43;;;;;;;13.62;11.55;;;;;;;14.93;100.00;100477.81;1606562;86;21132;-86
2021/09/01 01:45:11;;;;;;;12.73;11.53;;;;;;;14.87;100.00;100476.26;1606463;86;21144;-88
2021/09/01 01:47:39;;;;;;;12.65;11.35;;;;;;;14.78;100.00;100473.55;1606910;86;21029;-86
2021/09/01 01:50:07;;;;;;;12.55;11.35;;;;;;;14.80;100.00;100470.80;1606527;87;21171;-89
2021/09/01 01:52:35;;;;;;;13.80;12.35;;;;;;;14.92;100.00;100467.48;1606583;87;21681;-84
2021/09/01 01:55:05;;;;;;;13.35;12.00;;;;;;;15.03;100.00;100463.33;1606449;87;21148;-87
2021/09/01 01:57:33;;;;;;;14.87;11.65;;;;;;;15.16;100.00;100465.59;1606646;86;21069;-86
2021/09/01 02:00:00;;;;;;;12.55;11.33;;;;;;;15.30;100.00;100459.81;1634112;86;21064;-87
2021/09/01 02:02:31;;;;;;;15.40;11.97;;;;;;;15.45;100.00;100467.19;1603820;86;21041;-86
2021/09/01 02:04:58;;;;;;;13.83;11.80;;;;;;;15.56;100.00;100464.81;1634244;86;21056;-86
2021/09/01 02:07:27;;;;;;;12.30;11.00;;;;;;;15.66;100.00;100466.86;1607144;86;21013;-89
2021/09/01 02:09:55;;;;;;;12.47;11.18;;;;;;;15.77;100.00;100467.92;1606285;86;21033;-88
2021/09/01 02:12:23;;;;;;;11.45;10.40;;;;;;;15.87;100.00;100473.59;1606481;87;21187;-87
2021/09/01 02:14:50;;;;;;;11.57;10.48;;;;;;;15.97;100.00;100474.80;1606459;87;21139;-84
2021/09/01 02:17:17;;;;;;;17.60;10.55;;;;;;;16.02;100.00;100473.37;1606408;87;20969;-88
2021/09/01 02:19:46;;;;;;;11.70;10.58;;;;;;;16.08;100.00;100472.74;1606317;87;20989;-87
2021/09/01 02:22:14;;;;;;;12.23;10.58;;;;;;;16.13;100.00;100472.28;1606107;87;21113;-85
2021/09/01 02:24:41;;;;;;;12.78;10.70;;;;;;;16.12;100.00;100474.57;1608782;86;21628;-83
2021/09/01 02:27:08;;;;;;;11.08;10.05;;;;;;;16.04;100.00;100468.80;1654597;86;21791;-87
2021/09/01 02:29:35;;;;;;;12.82;11.50;;;;;;;15.95;100.00;100464.46;1634028;87;21466;-87
2021/09/01 02:32:02;;;;;;;11.48;10.13;;;;;;;15.92;100.00;100464.29;1634251;86;21152;-87
2021/09/01 02:34:30;;;;;;;15.05;9.85;;;;;;;15.89;100.00;100469.02;1605154;87;21034;-87
2021/09/01 02:36:58;;;;;;;17.05;11.15;;;;;;;15.87;100.00;100464.41;1634167;86;21572;-87
2021/09/01 02:39:25;;;;;;;11.85;10.30;;;;;;;15.84;100.00;100472.58;1605049;87;22075;-87
2021/09/01 02:41:53;;;;;;;12.45;11.15;;;;;;;15.76;100.00;100476.77;1605079;87;21018;-90
2021/09/01 02:44:20;;;;;;;12.90;10.58;;;;;;;15.67;100.00;100473.73;1605003;86;21545;-86
2021/09/01 02:46:47;;;;;;;13.18;10.78;;;;;;;15.58;100.00;100482.05;1604980;87;21031;-86
2021/09/01 02:49:14;;;;;;;11.00;9.98;;;;;;;15.53;100.00;100483.47;1605357;87;21106;-86
2021/09/01 02:51:41;;;;;;;12.13;10.75;;;;;;;15.46;100.00;100478.83;1615478;87;21849;-82
2021/09/01 02:54:08;;;;;;;16.40;12.03;;;;;;;15.45;100.00;100480.30;1605198;87;21030;-85
2021/09/01 02:56:35;;;;;;;16.55;12.95;;;;;;;15.53;100.00;100484.31;1605075;87;21055;-87
2021/09/01 02:59:03;;;;;;;12.90;11.60;;;;;;;15.63;100.00;100477.66;1637380;87;21440;-87
2021/09/01 03:01:31;;;;;;;19.45;11.83;;;;;;;15.74;100.00;100477.90;1634111;87;21994;-84
2021/09/01 03:03:58;;;;;;;16.25;11.40;;;;;;;15.82;100.00;100482.41;1634150;86;21154;-86
2021/09/01 03:06:25;;;;;;;22.85;12.40;;;;;;;15.85;100.00;100486.05;1604800;87;21120;-83
2021/09/01 03:08:52;;;;;;;22.48;13.08;;;;;;;15.91;100.00;100486.73;1605312;87;21097;-83
2021/09/01 03:11:20;;;;;;;17.40;14.65;;;;;;;15.99;100.00;100487.30;1605181;86;21109;-86
2021/09/01 03:13:48;;;;;;;17.65;15.70;;;;;;;16.06;100.00;100489.64;1634349;86;21098;-85
2021/09/01 03:16:15;;;;;;;19.37;16.00;;;;;;;16.13;100.00;100489.86;1605485;87;21830;-84
2021/09/01 03:18:42;;;;;;;44.48;15.78;;;;;;;16.18;100.00;100491.05;1605339;87;21640;-84
2021/09/01 03:21:10;;;;;;;23.90;14.40;;;;;;;16.21;100.00;100494.66;1605242;87;21588;-85
2021/09/01 03:23:37;;;;;;;20.95;14.40;;;;;;;16.17;100.00;100489.39;1605198;87;21050;-85
2021/09/01 03:26:05;;;;;;;17.10;13.18;;;;;;;16.14;100.00;100496.77;1633909;87;21173;-84
2021/09/01 03:28:32;;;;;;;19.65;14.03;;;;;;;16.09;100.00;100498.03;1610108;85;21114;-88
2021/09/01 03:30:59;;;;;;;17.90;13.53;;;;;;;16.03;100.00;100505.69;1656838;85;21050;-85
2021/09/01 03:33:26;;;;;;;19.52;13.93;;;;;;;15.95;100.00;100506.48;1631030;86;21545;-87
2021/09/01 03:35:55;;;;;;;20.88;14.95;;;;;;;15.87;100.00;100499.85;1646354;86;21023;-88
2021/09/01 03:38:22;;;;;;;17.87;14.63;;;;;;;15.80;100.00;100505.34;1605001;87;21023;-86
2021/09/01 03:40:49;;;;;;;21.00;14.38;;;;;;;15.70;100.00;100503.62;1620768;86;21541;-85
2021/09/01 03:43:17;;;;;;;19.07;14.55;;;;;;;15.58;100.00;100501.73;1631226;86;21593;-86
2021/09/01 03:45:43;;;;;;;16.85;15.05;;;;;;;15.49;100.00;100514.44;1645617;85;21655;-88
2021/09/01 03:48:10;;;;;;;18.30;15.95;;;;;;;15.36;100.00;100513.48;1605223;87;21074;-90
2021/09/01 03:50:37;;;;;;;18.62;15.43;;;;;;;15.21;100.00;100518.91;1634297;87;21038;-87
2021/09/01 03:53:05;;;;;;;17.82;16.02;;;;;;;15.10;100.00;100513.39;1605132;87;21597;-88
2021/09/01 03:55:33;;;;;;;18.60;16.70;;;;;;;15.04;100.00;100520.05;1605048;86;21055;-87
2021/09/01 03:58:00;;;;;;;20.92;17.05;;;;;;;15.03;100.00;100514.45;1605230;87;21039;-88
2021/09/01 04:00:27;;;;;;;19.15;16.82;;;;;;;15.05;100.00;100511.71;1604471;87;21559;-88
2021/09/01 04:02:54;;;;;;;23.50;17.37;;;;;;;15.07;100.00;100520.23;1633656;87;21525;-89
2021/09/01 04:05:21;;;;;;;19.82;17.00;;;;;;;15.09;100.00;100520.91;1605196;87;21062;-84
2021/09/01 04:07:48;;;;;;;24.00;17.92;;;;;;;15.12;100.00;100512.27;1604963;86;21437;-89
2021/09/01 04:10:15;;;;;;;22.95;16.52;;;;;;;15.17;100.00;100510.52;1632454;86;21069;-84
2021/09/01 04:12:42;;;;;;;21.10;17.60;;;;;;;15.24;100.00;100510.26;1605991;86;21048;-87
2021/09/01 04:15:09;;;;;;;21.17;17.50;;;;;;;15.32;100.00;100508.22;1600353;88;20990;-86
2021/09/01 04:17:39;;;;;;;23.30;18.40;;;;;;;15.42;100.00;100506.33;1606402;87;21108;-87
2021/09/01 04:20:09;;;;;;;23.02;18.35;;;;;;;15.53;100.00;100505.77;1617088;87;21541;-89
2021/09/01 04:22:37;;;;;;;20.02;17.70;;;;;;;15.64;100.00;100503.40;1616973;86;21076;-86
2021/09/01 04:25:06;;;;;;;22.45;18.27;;;;;;;15.75;100.00;100498.73;1616982;87;21030;-88
2021/09/01 04:27:33;;;;;;;23.57;18.67;;;;;;;15.87;100.00;100502.48;1618037;87;21079;-86
2021/09/01 04:29:59;;;;;;;22.67;18.02;;;;;;;15.98;100.00;100500.93;1604650;87;21117;-87
2021/09/01 04:32:30;;;;;;;24.10;18.87;;;;;;;16.08;100.00;100502.95;1634266;87;21011;-87
2021/09/01 04:34:57;;;;;;;27.55;19.10;;;;;;;16.20;100.00;100506.14;1605061;87;21145;-89
2021/09/01 04:37:24;;;;;;;28.10;18.98;;;;;;;16.30;100.00;100508.69;1629433;86;21171;-89
2021/09/01 04:39:51;;;;;;;28.45;19.73;;;;;;;16.42;100.00;100514.97;1613905;87;21604;-88
2021/09/01 04:42:18;;;;;;;30.08;19.67;;;;;;;16.53;100.00;100514.71;1595643;87;21698;-89
2021/09/01 04:44:45;;;;;;;34.45;20.17;;;;;;;16.62;100.00;100519.03;1634006;86;21078;-87
2021/09/01 04:47:13;;;;;;;33.02;21.30;;;;;;;16.71;100.00;100518.56;1615416;87;22014;-86
2021/09/01 04:49:40;;;;;;;32.03;21.87;;;;;;;16.79;100.00;100511.18;1615535;87;21110;-87
2021/09/01 04:52:06;;;;;;;28.95;20.23;;;;;;;16.91;100.00;100511.72;1615587;87;21070;-87
2021/09/01 04:54:35;;;;;;;32.65;21.52;;;;;;;16.98;100.00;100510.96;1615366;87;21111;-87
2021/09/01 04:57:03;;;;;;;26.73;19.48;;;;;;;17.06;100.00;100511.49;1615550;87;21070;-86
2021/09/01 04:59:31;;;;;;;27.52;21.00;;;;;;;17.15;100.00;100510.50;1633966;87;21551;-85
2021/09/01 05:01:57;;;;;;;29.57;21.62;;;;;;;17.25;100.00;100510.85;1615357;87;21043;-86
2021/09/01 05:04:25;;;;;;;28.02;19.10;;;;;;;17.33;100.00;100513.02;1615413;87;21515;-89
2021/09/01 05:06:51;;;;;;;23.73;20.08;;;;;;;17.43;100.00;100510.70;1615407;87;21088;-87
2021/09/01 05:09:19;;;;;;;32.98;21.30;;;;;;;17.49;100.00;100509.58;1634211;86;21543;-86
2021/09/01 05:11:47;;;;;;;31.73;20.92;;;;;;;17.58;100.00;100514.37;1615204;87;21050;-88
2021/09/01 05:14:14;;;;;;;29.70;21.60;;;;;;;17.68;100.00;100511.56;1615242;87;21062;-90
2021/09/01 05:16:41;;;;;;;29.07;21.77;;;;;;;17.79;100.00;100519.63;1615598;86;21537;-86
2021/09/01 05:19:10;;;;;;;27.70;21.60;;;;;;;17.86;100.00;100511.39;1615305;87;21768;-86
2021/09/01 05:21:44;;;;;;;27.02;22.35;;;;;;;17.96;100.00;100511.23;1615155;86;21105;-87
2021/09/01 05:24:16;;;;;;;28.35;22.42;;;;;;;18.05;100.00;100514.20;1599115;87;21078;-86
2021/09/01 05:26:46;;;;;;;31.42;23.67;;;;;;;18.12;100.00;100511.22;1601952;87;21138;-87
2021/09/01 05:29:13;;;;;;;34.03;26.12;;;;;;;18.20;100.00;100503.80;1611214;87;21135;-86
2021/09/01 05:31:41;;;;;;;35.83;25.60;;;;;;;18.28;100.00;100498.99;1592878;88;21209;-85
2021/09/01 05:34:10;;;;;;;40.08;29.72;;;;;;;18.36;100.00;100496.84;1605154;87;21086;-86
2021/09/01 05:36:38;;;;;;;38.13;30.97;;;;;;;18.42;100.00;100500.95;1633966;86;21625;-88
2021/09/01 05:39:07;;;;;;;39.67;31.17;;;;;;;18.49;100.00;100503.70;1629509;86;21034;-88
2021/09/01 05:41:34;;;;;;;33.45;27.75;;;;;;;18.57;100.00;100506.83;1606358;87;21453;-85
2021/09/01 05:44:02;;;;;;;32.85;26.82;;;;;;;18.64;100.00;100501.67;1615336;87;21149;-87
2021/09/01 05:46:31;;;;;;;34.03;24.75;;;;;;;18.70;100.00;100500.50;1606321;87;20971;-88
2021/09/01 05:48:59;;;;;;;35.28;25.10;;;;;;;18.79;100.00;100500.47;1615296;87;21066;-88
2021/09/01 05:51:28;;;;;;;35.40;25.10;;;;;;;18.87;100.00;100498.59;1606123;87;21078;-89
2021/09/01 05:53:55;;;;;;;32.35;23.70;;;;;;;18.96;100.00;100499.91;1634185;87;21556;-90
2021/09/01 05:56:29;;;;;;;29.32;23.62;;;;;;;19.05;100.00;100497.07;1606021;87;21338;-88
2021/09/01 05:59:01;;;;;;;30.27;24.47;;;;;;;19.14;100.00;100493.87;1615679;87;20956;-89
2021/09/01 06:01:31;;;;;;;31.20;25.08;;;;;;;19.22;100.00;100493.81;1603392;87;21102;-85
2021/09/01 06:04:01;;;;;;;31.27;25.30;;;;;;;19.32;100.00;100499.37;1631915;87;21034;-88
2021/09/01 06:06:28;;;;;;;31.75;25.77;;;;;;;19.41;100.00;100497.00;1603345;87;21102;-88
2021/09/01 06:09:00;;;;;;;28.40;22.22;;;;;;;19.49;100.00;100496.09;1634423;86;21172;-87
2021/09/01 06:11:30;;;;;;;30.60;23.10;;;;;;;19.57;100.00;100499.19;1633565;87;21109;-89
2021/09/01 06:13:59;;;;;;;34.18;21.97;;;;;;;19.66;100.00;100491.52;1634088;86;21058;-84
2021/09/01 06:16:28;;;;;;;20.62;18.25;;;;;;;19.74;100.00;100492.77;1634066;87;21101;-85
2021/09/01 06:18:55;;;;;;;22.55;19.55;;;;;;;19.82;100.00;100496.66;1615580;87;21161;-89
2021/09/01 06:21:23;;;;;;;17.85;15.90;;;;;;;19.92;100.00;100495.11;1606254;87;21114;-87
2021/09/01 06:23:50;;;;;;;17.95;15.95;;;;;;;20.01;100.00;100491.39;1615608;87;21134;-82
2021/09/01 06:26:17;;;;;;;18.00;16.00;;;;;;;20.13;100.00;100494.41;1606181;87;21077;-86
2021/09/01 06:28:45;;;;;;;16.75;14.50;;;;;;;20.24;100.00;100501.55;1634098;87;21097;-88
2021/09/01 06:31:12;;;;;;;19.80;16.40;;;;;;;20.32;100.00;100503.62;1606214;87;21089;-88
2021/09/01 06:33:39;;;;;;;21.65;16.93;;;;;;;20.37;100.00;100499.59;1591846;87;21215;-87
2021/09/01 06:36:06;;;;;;;22.85;17.90;;;;;;;20.39;100.00;100495.76;1645346;86;21611;-88
2021/09/01 06:38:33;;;;;;;22.02;18.10;;;;;;;20.46;100.00;100498.02;1614174;87;21153;-87
2021/09/01 06:41:00;;;;;;;23.15;17.52;;;;;;;20.53;100.00;100502.56;1626349;87;21600;-87
2021/09/01 06:43:27;;;;;;;20.27;15.70;;;;;;;20.60;100.00;100502.14;1626663;87;21050;-86
2021/09/01 06:45:55;;;;;;;19.92;15.90;;;;;;;20.64;100.00;100502.08;1625962;86;21921;-86
2021/09/01 06:48:25;;;;;;;17.37;11.93;;;;;;;20.70;100.00;100509.78;1626245;86;21130;-88
2021/09/01 06:51:00;;;;;;;12.18;10.98;;;;;;;20.77;100.00;100510.71;1611273;87;21557;-88
2021/09/01 06:53:29;;;;;;;15.35;11.78;;;;;;;20.87;100.00;100505.16;1634669;86;21575;-90
2021/09/01 06:55:57;;;;;;;15.78;10.88;;;;;;;20.96;100.00;100502.69;1592446;87;21053;-86
2021/09/01 06:58:28;;;;;;;10.85;8.68;;;;;;;21.03;100.00;100509.39;1591803;87;21539;-88
2021/09/01 07:00:54;;;;;;;10.50;8.48;;;;;;;21.12;100.00;100508.27;1566802;87;21077;-87
2021/09/01 07:03:23;;;;;;;10.48;8.98;;;;;;;21.20;100.00;100507.31;1622492;86;21164;-89
2021/09/01 07:05:52;;;;;;;10.58;7.60;;;;;;;21.30;100.00;100512.32;1643241;86;21090;-87
2021/09/01 07:08:23;;;;;;;15.00;8.63;;;;;;;21.38;100.00;100510.35;1642633;86;21046;-90
2021/09/01 07:10:52;;;;;;;8.08;7.17;;;;;;;21.48;100.00;100508.70;1643034;86;21503;-86
2021/09/01 07:13:19;;;;;;;26.90;8.60;;;;;;;21.57;100.00;100510.25;1643069;86;21055;-86
2021/09/01 07:15:48;;;;;;;7.78;6.17;;;;;;;21.65;100.00;100511.12;1662113;85;21023;-86
2021/09/01 07:18:16;;;;;;;11.03;6.47;;;;;;;21.71;100.00;100506.41;1643235;86;21030;-87
2021/09/01 07:20:44;;;;;;;7.10;6.00;;;;;;;21.79;100.00;100504.10;1624564;87;21124;-87
2021/09/01 07:23:13;;;;;;;7.50;6.70;;;;;;;21.86;100.00;100502.31;1613758;87;21090;-92
2021/09/01 07:25:41;;;;;;;6.75;6.15;;;;;;;21.92;100.00;100497.56;1613980;87;21685;-91
2021/09/01 07:28:09;;;;;;;6.60;6.00;;;;;;;21.99;100.00;100495.77;1607400;87;21010;-90
2021/09/01 07:30:39;;;;;;;26.70;9.03;;;;;;;22.04;100.00;100494.70;1602115;88;21058;-89
2021/09/01 07:33:06;;;;;;;44.83;13.80;;;;;;;22.12;100.00;100490.27;1577948;89;21054;-88
2021/09/01 07:35:33;;;;;;;12.30;5.55;;;;;;;22.24;100.00;100494.52;1575881;89;21255;-89
2021/09/01 07:38:00;;;;;;;6.37;4.28;;;;;;;22.37;100.00;100491.44;1577724;89;21108;-87
2021/09/01 07:40:28;;;;;;;10.80;6.28;;;;;;;22.48;100.00;100482.13;1577623;89;21077;-88
2021/09/01 07:42:56;;;;;;;7.35;5.42;;;;;;;22.56;100.00;100489.08;1577571;89;21090;-89
2021/09/01 07:45:23;;;;;;;5.58;5.05;;;;;;;22.59;100.00;100482.58;1577557;88;21755;-85
2021/09/01 07:47:54;;;;;;;4.70;4.30;;;;;;;22.61;100.00;100489.33;1577686;89;21936;-86
2021/09/01 07:50:25;;;;;;;58.68;7.12;;;;;;;22.68;100.00;100491.48;1583097;89;21671;-87
2021/09/01 07:52:53;;;;;;;127.50;9.65;;;;;;;22.80;100.00;100482.45;1577447;89;21148;-84
2021/09/01 07:55:21;;;;;;;14.98;4.65;;;;;;;22.95;100.00;100483.63;1576497;89;21189;-85
2021/09/01 07:57:49;;;;;;;28.32;4.67;;;;;;;23.10;97.48;100489.27;1594171;87;21108;-87
2021/09/01 08:00:17;;;;;;;10.85;4.37;;;;;;;23.22;89.05;100485.02;1605816;87;21101;-89
2021/09/01 08:02:44;;;;;;;10.55;4.28;;;;;;;23.35;92.87;100478.09;1624147;87;21058;-84
2021/09/01 08:05:11;;;;;;;13.48;5.03;;;;;;;23.47;89.11;100484.42;1608098;88;21082;-83
2021/09/01 08:07:38;;;;;;;9.98;4.87;;;;;;;23.58;90.11;100487.81;1589012;89;21090;-87
2021/09/01 08:10:10;;;;;;;5.53;5.03;;;;;;;23.67;94.76;100486.27;1577978;89;21062;-88
2021/09/01 08:12:37;;;;;;;5.65;4.50;;;;;;;23.76;93.46;100488.50;1577287;89;21454;-85
2021/09/01 08:15:08;;;;;;;5.03;4.45;;;;;;;23.92;94.68;100487.77;1608178;88;20971;-91
2021/09/01 08:17:39;;;;;;;4.55;4.12;;;;;;;24.08;93.94;100487.36;1611018;88;21024;-89
2021/09/01 08:20:07;;;;;;;6.30;5.10;;;;;;;24.24;87.19;100486.08;1612897;87;21521;-86
2021/09/01 08:22:35;;;;;;;4.40;4.03;;;;;;;24.36;85.51;100476.94;1615445;87;21049;-87
2021/09/01 08:25:04;;;;;;;4.08;3.77;;;;;;;24.47;87.68;100482.64;1633665;86;21074;-90
2021/09/01 08:27:33;;;;;;;4.78;3.65;;;;;;;24.56;77.14;100474.72;1633275;86;22201;-87
2021/09/01 08:30:00;;;;;;;6.67;4.78;;;;;;;24.64;73.09;100470.98;1617179;87;21522;-90
2021/09/01 08:32:27;;;;;;;5.55;4.55;;;;;;;24.67;67.67;100474.59;1649323;85;21076;-88
2021/09/01 08:34:54;;;;;;;5.00;4.40;;;;;;;24.72;72.92;100466.78;1625726;87;21041;-85
2021/09/01 08:37:21;;;;;;;4.67;4.28;;;;;;;24.78;65.52;100471.27;1650405;85;21894;-87
2021/09/01 08:39:48;;;;;;;4.87;4.35;;;;;;;24.77;69.98;100472.80;1625890;85;21532;-88
2021/09/01 08:42:18;;;;;;;5.37;4.87;;;;;;;24.85;67.55;100469.39;1650358;85;21697;-85
2021/09/01 08:44:46;;;;;;;6.60;5.50;;;;;;;25.03;69.92;100463.86;1636510;84;21092;-86
2021/09/01 08:47:16;;;;;;;6.72;4.95;;;;;;;25.19;67.79;100460.67;1585545;88;21542;-88
2021/09/01 08:49:45;;;;;;;5.65;5.15;;;;;;;25.22;58.78;100461.25;1599093;88;21032;-84
2021/09/01 08:52:14;;;;;;;5.62;5.05;;;;;;;25.00;63.60;100473.59;1623841;87;21112;-85
2021/09/01 08:54:42;;;;;;;5.60;4.60;;;;;;;24.64;66.37;100474.48;1598683;87;21140;-84
2021/09/01 08:57:14;;;;;;;5.58;4.90;;;;;;;24.34;70.38;100474.19;1598800;88;21020;-86
2021/09/01 08:59:41;;;;;;;5.12;4.62;;;;;;;24.16;77.81;100474.86;1623807;87;21195;-85
2021/09/01 09:02:08;;;;;;;5.12;4.65;;;;;;;24.05;66.77;100477.13;1624126;87;21161;-88
2021/09/01 09:04:38;;;;;;;5.80;5.30;;;;;;;24.02;68.75;100472.25;1598571;88;21136;-84
2021/09/01 09:07:09;;;;;;;5.93;5.43;;;;;;;24.04;65.04;100473.36;1589934;89;21040;-85
2021/09/01 09:09:39;;;;;;;6.15;5.03;;;;;;;24.07;66.31;100464.45;1590008;89;21560;-89
2021/09/01 09:12:09;;;;;;;5.70;5.08;;;;;;;24.22;68.69;100466.04;1574465;89;21074;-90
2021/09/01 09:14:43;;;;;;;5.28;4.78;;;;;;;24.44;67.64;100459.12;1589790;89;21088;-85
2021/09/01 09:17:16;;;;;;;4.90;4.50;;;;;;;24.64;60.16;100456.34;1608142;88;21148;-85
2021/09/01 09:19:54;;;;;;;4.35;4.00;;;;;;;24.79;66.92;100448.11;1607959;87;21129;-86
2021/09/01 09:22:28;;;;;;;7.95;5.42;;;;;;;24.88;57.00;100451.63;1610234;88;21122;-84
2021/09/01 09:25:10;;;;;;;7.80;5.58;;;;;;;24.80;62.94;100447.89;1589981;89;21011;-85
2021/09/01 09:27:52;;;;;;;4.30;3.90;;;;;;;24.79;66.36;100447.62;1589814;89;21050;-88
2021/09/01 09:30:41;;;;;;;4.37;3.98;;;;;;;24.88;57.64;100446.84;1607996;89;21054;-85
2021/09/01 09:33:21;;;;;;;5.33;4.28;;;;;;;25.06;56.27;100443.44;1589789;89;21114;-87
2021/09/01 09:36:00;;;;;;;7.33;4.80;;;;;;;25.30;56.62;100447.66;1589883;88;20994;-91
2021/09/01 09:38:45;;;;;;;6.03;4.12;;;;;;;25.53;54.95;100435.11;1590120;89;21125;-85
2021/09/01 09:41:25;;;;;;;5.10;4.42;;;;;;;25.74;54.06;100425.88;1590021;88;21844;-87
2021/09/01 09:43:57;;;;;;;4.47;4.08;;;;;;;25.97;55.92;100424.41;1558317;89;21062;-85
2021/09/01 09:46:25;;;;;;;3.67;3.37;;;;;;;26.12;52.31;100425.38;1589968;89;21054;-90
2021/09/01 09:48:53;;;;;;;4.22;3.62;;;;;;;26.23;50.22;100426.51;1590211;89;21061;-84
2021/09/01 09:51:41;;;;;;;4.53;3.85;;;;;;;26.32;52.56;100427.00;1589924;89;21164;-91
2021/09/01 09:54:19;;;;;;;5.28;3.70;;;;;;;26.42;50.99;100420.62;1557320;89;21791;-86
2021/09/01 09:56:46;;;;;;;4.12;3.75;;;;;;;26.55;49.38;100424.97;1589981;89;21030;-84
2021/09/01 09:59:17;;;;;;;4.00;3.70;;;;;;;26.61;47.31;100430.20;1590256;87;21224;-83
2021/09/01 10:01:45;;;;;;;5.83;4.12;;;;;;;26.53;46.58;100425.70;1608216;87;21121;-86
2021/09/01 10:04:12;;;;;;;4.42;3.60;;;;;;;26.32;44.81;100420.33;1611179;88;21561;-84
2021/09/01 10:06:41;;;;;;;5.80;3.42;;;;;;;26.10;46.50;100423.48;1589941;87;21121;-88
2021/09/01 10:09:09;;;;;;;4.40;3.77;;;;;;;25.99;44.18;100422.34;1590082;89;21126;-84
2021/09/01 10:11:41;;;;;;;4.42;3.77;;;;;;;25.89;46.29;100424.70;1608063;87;21105;-89
2021/09/01 10:14:11;;;;;;;3.45;3.12;;;;;;;25.93;47.60;100418.70;1556989;89;21133;-86
2021/09/01 10:16:42;;;;;;;3.87;3.47;;;;;;;26.13;48.38;100422.51;1574252;88;21148;-84
2021/09/01 10:19:14;;;;;;;3.60;3.30;;;;;;;26.34;46.09;100414.26;1603391;89;21234;-84
2021/09/01 10:22:06;;;;;;;4.83;3.22;;;;;;;26.48;45.81;100425.58;1608027;88;21130;-87
2021/09/01 10:24:39;;;;;;;3.65;3.35;;;;;;;26.59;45.15;100420.80;1590131;89;21141;-85
2021/09/01 10:27:14;;;;;;;4.58;3.95;;;;;;;26.62;42.39;100423.02;1610382;86;21106;-89
2021/09/01 10:30:00;;;;;;;4.97;3.83;;;;;;;26.54;43.68;100420.67;1613567;87;21071;-87
2021/09/01 10:32:45;;;;;;;5.87;4.15;;;;;;;26.42;44.77;100414.75;1598388;86;21864;-85
2021/09/01 10:35:17;;;;;;;5.83;5.33;;;;;;;26.44;45.34;100421.22;1614138;87;21070;-89
2021/09/01 10:37:56;;;;;;;6.78;5.00;;;;;;;26.52;43.25;100416.06;1589894;89;21580;-87
2021/09/01 10:40:30;;;;;;;5.65;5.10;;;;;;;26.64;44.23;100418.78;1589879;87;21567;-85
2021/09/01 10:43:00;;;;;;;5.30;4.03;;;;;;;26.76;43.80;100424.48;1612965;87;21032;-84
2021/09/01 10:45:37;;;;;;;5.30;4.05;;;;;;;26.83;44.51;100415.55;1608032;87;21046;-89
2021/09/01 10:48:08;;;;;;;4.70;4.20;;;;;;;26.85;43.73;100412.94;1611063;86;21082;-86
2021/09/01 10:50:39;;;;;;;5.15;4.62;;;;;;;26.95;42.66;100411.06;1615661;86;21075;-85
2021/09/01 10:53:26;;;;;;;4.90;4.45;;;;;;;26.86;40.11;100411.91;1606375;87;21631;-85
2021/09/01 10:56:06;;;;;;;6.33;4.58;;;;;;;26.64;41.62;100415.58;1633784;86;21067;-85
2021/09/01 10:58:45;;;;;;;11.05;4.53;;;;;;;26.50;42.78;100412.80;1571789;87;21074;-84
2021/09/01 11:01:20;;;;;;;5.33;4.67;;;;;;;26.49;42.30;100405.83;1634237;86;21560;-85
2021/09/01 11:04:02;;;;;;;5.40;4.80;;;;;;;26.44;40.32;100399.33;1634454;87;21035;-84
2021/09/01 11:06:32;;;;;;;4.35;3.95;;;;;;;26.36;42.72;100402.31;1589927;88;21621;-86
2021/09/01 11:09:06;;;;;;;5.08;4.62;;;;;;;26.34;41.09;100396.37;1572877;89;21064;-88
2021/09/01 11:11:45;;;;;;;4.87;4.33;;;;;;;26.37;42.98;100397.27;1606163;85;21077;-86
2021/09/01 11:14:30;;;;;;;6.17;4.20;;;;;;;26.38;40.80;100396.73;1632852;86;21810;-88
2021/09/01 11:17:00;;;;;;;4.08;3.67;;;;;;;26.33;41.98;100396.61;1633437;86;20967;-88
2021/09/01 11:19:29;;;;;;;4.60;4.20;;;;;;;26.33;42.06;100389.41;1633819;87;21058;-86